KACT/ACT METAR and TAF weather

Enter ICAO airport designator
Station Type Date Time Source
KACT METAR 2022/06/25 21:51 UTC NOAA

KACT 252151Z 18010KT 10SM CLR 39/11 A2992 RMK AO2 SLP122 T03890111


Station Type Date Time Source
KACT Decoded METAR 2022/06/25 21:51 UTC NOAA

WACO REGIONAL AIRPORT, TX, United States (KACT) 31-36N 97-13W 151M
Jun 25, 2022 - 05:51 PM EDT / 2022.06.25 2151 UTC
Wind: from the S (180 degrees) at 12 MPH (10 KT):0
Visibility: 10 mile(s):0
Sky conditions: clear
Temperature: 102.0 F (38.9 C)
Heat index: 99.3 F (37.4 C):1
Dew Point: 52.0 F (11.1 C)
Relative Humidity: 18%
Pressure (altimeter): 29.92 in. Hg (1013 hPa)
ob: KACT 252151Z 18010KT 10SM CLR 39/11 A2992 RMK AO2 SLP122 T03890111
cycle: 22

Station Type Date Time Source
KACT TAF 2022/06/25 21:12 UTC NOAA

TAF
AMD KACT 252110Z 2521/2618 17011KT P6SM FEW250
FM261500 24008KT P6SM FEW250

Example: see airport list